Time;durP1;ratioP1;P1;durP2;ratioP2;P2;SDS_P1;SDS_P2;PMS_P1;PMS_P2;Temp;Humidity;BMP_temperature;BMP_pressure;BME280_temperature;BME280_humidity;BME280_pressure;Samples;Min_cycle;Max_cycle;Signal;HPM_P1;HPM_P2
2022/06/02 00:00:57;;;;;;;5.40;4.97;;;;;;;18.40;71.33;101039.31;4996893;28;102555;-55
2022/06/02 00:03:30;;;;;;;6.50;5.90;;;;;;;18.40;71.43;101039.31;4994972;28;103885;-55
2022/06/02 00:06:08;;;;;;;6.72;5.78;;;;;;;18.40;71.39;101028.28;4995287;28;102434;-55
2022/06/02 00:08:53;;;;;;;6.55;5.95;;;;;;;18.39;71.44;101028.59;4995476;28;102549;-56
2022/06/02 00:11:32;;;;;;;6.38;4.90;;;;;;;18.38;71.24;101036.03;4987994;28;102110;-55
2022/06/02 00:14:10;;;;;;;6.32;5.65;;;;;;;18.40;71.46;101031.03;4975982;28;103982;-55
2022/06/02 00:16:46;;;;;;;6.03;5.47;;;;;;;18.39;71.20;101032.19;4987794;28;102010;-55
2022/06/02 00:19:27;;;;;;;6.38;5.72;;;;;;;18.39;71.31;101028.59;5013989;28;101871;-55
2022/06/02 00:22:00;;;;;;;6.40;5.43;;;;;;;18.39;71.53;101031.34;4997985;28;102139;-55
2022/06/02 00:24:36;;;;;;;6.18;5.40;;;;;;;18.39;71.26;101037.69;4998240;28;103855;-55
2022/06/02 00:27:14;;;;;;;7.30;5.32;;;;;;;18.38;71.49;101025.03;5015895;28;102027;-55
2022/06/02 00:29:49;;;;;;;8.15;5.53;;;;;;;18.38;71.49;101036.03;4995552;28;102538;-55
2022/06/02 00:32:21;;;;;;;5.78;5.20;;;;;;;18.40;71.45;101033.00;4995706;28;102052;-56
2022/06/02 00:34:54;;;;;;;6.20;5.60;;;;;;;18.40;71.31;101044.00;4997793;28;103981;-55
2022/06/02 00:37:39;;;;;;;5.90;5.40;;;;;;;18.38;71.48;101036.03;4995814;28;102640;-56
2022/06/02 00:40:11;;;;;;;6.28;5.43;;;;;;;18.39;71.43;101045.97;4998701;28;102003;-55
2022/06/02 00:42:49;;;;;;;6.43;5.82;;;;;;;18.38;71.63;101036.03;4997435;28;102134;-55
2022/06/02 00:45:18;;;;;;;6.53;5.50;;;;;;;18.38;71.50;101041.56;4997830;28;103936;-55
2022/06/02 00:47:51;;;;;;;6.50;5.68;;;;;;;18.38;71.24;101036.03;5016193;28;102162;-55
2022/06/02 00:50:48;;;;;;;5.70;5.20;;;;;;;18.38;71.49;101035.22;5002818;28;102331;-55
2022/06/02 00:53:20;;;;;;;5.72;5.22;;;;;;;18.39;71.45;101039.59;5008143;28;102337;-55
2022/06/02 00:59:00;;;;;;;6.53;5.55;;;;;;;18.38;71.40;101041.56;4999435;28;102336;-55
2022/06/02 01:01:29;;;;;;;5.82;5.22;;;;;;;18.37;71.38;101039.94;4991534;28;102440;-55
2022/06/02 01:03:56;;;;;;;;;;;;;;;18.38;71.02;101038.00;4995139;28;102465;-55
2022/06/02 01:06:35;;;;;;;5.95;5.20;;;;;;;18.38;71.54;101044.31;5004063;28;104393;-55
2022/06/02 01:10:07;;;;;;;6.60;5.30;;;;;;;18.38;71.37;101046.25;5018212;28;101955;-55
2022/06/02 01:12:55;;;;;;;5.45;4.90;;;;;;;18.37;71.47;101041.88;4866581;28;102293;-55
2022/06/02 01:15:35;;;;;;;5.72;5.22;;;;;;;18.37;71.16;101039.13;4874397;28;102257;-55
2022/06/02 01:18:16;;;;;;;5.85;5.15;;;;;;;18.37;71.47;101037.19;4969000;28;103879;-55
2022/06/02 01:20:54;;;;;;;5.57;5.07;;;;;;;18.36;71.29;101038.31;5016343;28;102303;-55
2022/06/02 01:23:54;;;;;;;6.15;5.38;;;;;;;18.37;71.26;101037.19;5001546;28;102271;-55
2022/06/02 01:26:57;;;;;;;6.50;5.30;;;;;;;18.37;71.12;101039.94;4999187;28;102240;-55
2022/06/02 01:30:04;;;;;;;5.78;5.22;;;;;;;18.37;71.61;101033.63;4994608;28;104346;-55
2022/06/02 01:32:40;;;;;;;7.50;5.15;;;;;;;18.37;71.30;101039.94;4960051;28;103328;-55
2022/06/02 01:35:17;;;;;;;6.18;5.25;;;;;;;18.37;71.26;101042.69;4985447;28;102164;-55
2022/06/02 01:37:49;;;;;;;5.78;4.93;;;;;;;18.37;71.57;101042.69;4995178;28;102703;-55
2022/06/02 01:40:28;;;;;;;5.13;4.53;;;;;;;18.36;71.27;101035.56;4990740;28;103674;-55
2022/06/02 01:43:03;;;;;;;5.53;4.95;;;;;;;18.37;71.38;101044.63;5004313;28;102347;-55
2022/06/02 01:45:46;;;;;;;5.50;5.00;;;;;;;18.37;71.28;101045.44;4999085;28;102373;-55
2022/06/02 01:48:24;;;;;;;5.85;5.35;;;;;;;18.36;71.54;101049.34;5006754;28;102376;-55
2022/06/02 01:51:00;;;;;;;6.07;5.47;;;;;;;18.37;71.31;101047.41;4999034;28;103849;-55
2022/06/02 01:53:40;;;;;;;5.47;4.97;;;;;;;18.36;71.54;101049.34;5017431;28;102289;-55
2022/06/02 01:56:21;;;;;;;5.50;5.00;;;;;;;18.36;71.58;101043.81;5006256;28;102377;-55
2022/06/02 01:59:07;;;;;;;5.50;4.95;;;;;;;18.37;71.29;101044.63;5011756;28;102304;-55
2022/06/02 02:01:41;;;;;;;5.00;4.60;;;;;;;18.36;71.05;101046.59;5013810;28;103874;-55
2022/06/02 02:04:27;;;;;;;5.65;5.15;;;;;;;18.36;71.64;101049.34;5010371;28;102108;-55
2022/06/02 02:07:02;;;;;;;5.47;4.70;;;;;;;18.36;71.71;101043.81;5006049;28;102073;-55
2022/06/02 02:09:42;;;;;;;6.05;5.53;;;;;;;18.37;71.25;101045.44;4985745;28;102159;-55
2022/06/02 02:12:19;;;;;;;5.25;4.75;;;;;;;18.36;71.28;101049.34;5002653;28;108108;-55
2022/06/02 02:14:56;;;;;;;5.55;5.05;;;;;;;18.36;71.53;101046.59;5010872;28;102193;-55
2022/06/02 02:17:47;;;;;;;5.63;5.13;;;;;;;18.35;71.63;101047.69;5016833;28;102181;-55
2022/06/02 02:20:26;;;;;;;5.43;4.93;;;;;;;18.37;71.39;101052.91;4987319;28;102252;-55
2022/06/02 02:23:01;;;;;;;5.35;4.85;;;;;;;18.36;71.53;101049.34;4986052;28;103938;-55
2022/06/02 02:25:34;;;;;;;5.60;4.85;;;;;;;18.37;71.27;101056.47;4997520;28;102334;-55
2022/06/02 02:28:12;;;;;;;5.22;4.72;;;;;;;18.36;71.36;101054.84;4995468;28;102220;-55
2022/06/02 02:30:54;;;;;;;7.70;4.82;;;;;;;18.36;71.70;101063.13;4988569;28;102373;-55
2022/06/02 02:33:31;;;;;;;5.53;5.03;;;;;;;18.36;71.30;101065.88;5014105;28;103890;-56
2022/06/02 02:36:08;;;;;;;6.63;4.88;;;;;;;18.36;71.26;101052.09;5005161;28;102533;-55
2022/06/02 02:38:42;;;;;;;5.38;4.93;;;;;;;18.36;70.89;101054.84;5009855;28;102375;-55
2022/06/02 02:41:15;;;;;;;5.82;5.20;;;;;;;18.36;71.53;101059.56;4995654;28;102478;-55
2022/06/02 02:43:55;;;;;;;5.03;4.53;;;;;;;18.37;71.27;101061.16;4983848;28;103870;-55
2022/06/02 02:46:34;;;;;;;5.80;5.07;;;;;;;18.38;71.51;101057.28;4978739;28;102053;-55
2022/06/02 02:49:11;;;;;;;5.07;4.65;;;;;;;18.38;71.17;101057.28;4976542;28;102342;-55
2022/06/02 02:51:48;;;;;;;6.28;5.50;;;;;;;18.38;71.08;101054.53;4994128;28;102230;-55
2022/06/02 02:54:22;;;;;;;6.72;5.22;;;;;;;18.38;71.48;101051.75;4995959;28;103669;-55
2022/06/02 02:56:58;;;;;;;5.18;4.68;;;;;;;18.38;71.51;101058.09;4996659;28;101829;-55
2022/06/02 02:59:31;;;;;;;5.95;4.80;;;;;;;18.39;71.41;101056.13;4988347;28;102244;-55
2022/06/02 03:02:08;;;;;;;5.10;4.60;;;;;;;18.39;71.41;101056.13;4993164;28;103674;-55
2022/06/02 03:04:43;;;;;;;5.38;4.88;;;;;;;18.40;71.43;101055.03;4983718;28;104007;-55
2022/06/02 03:07:11;;;;;;;5.07;4.55;;;;;;;18.39;71.14;101051.47;4976873;28;101854;-55
2022/06/02 03:09:43;;;;;;;5.53;5.03;;;;;;;18.39;71.16;101059.75;4975924;28;102321;-55
2022/06/02 03:12:23;;;;;;;5.22;4.72;;;;;;;18.41;71.42;101065.72;4976984;28;102381;-55
2022/06/02 03:15:17;;;;;;;5.75;5.10;;;;;;;18.40;71.31;101064.09;4975957;28;108079;-54
2022/06/02 03:18:00;;;;;;;5.45;4.90;;;;;;;18.41;71.12;101057.47;4976993;28;102143;-55
2022/06/02 03:20:40;;;;;;;5.50;5.00;;;;;;;18.41;71.40;101067.69;4976545;28;101989;-55
2022/06/02 03:23:32;;;;;;;5.32;4.82;;;;;;;18.42;71.22;101075.63;4977145;28;102956;-55
2022/06/02 03:26:05;;;;;;;5.60;5.03;;;;;;;18.43;71.49;101073.69;4981465;28;103976;-55
2022/06/02 03:28:49;;;;;;;5.50;5.00;;;;;;;18.44;71.69;101072.56;4989029;28;102330;-55
2022/06/02 03:31:24;;;;;;;5.60;5.10;;;;;;;18.42;71.20;101075.63;4996154;28;102180;-55
2022/06/02 03:34:03;;;;;;;6.25;5.18;;;;;;;18.43;71.63;101071.75;4994113;28;102363;-55
2022/06/02 03:36:54;;;;;;;6.60;4.60;;;;;;;18.43;71.24;101074.50;4986202;28;104066;-55
2022/06/02 03:39:33;;;;;;;4.93;4.47;;;;;;;18.44;71.58;101070.59;5001453;28;102350;-55
2022/06/02 03:42:06;;;;;;;;;;;;;;;18.45;71.43;101074.97;5005629;28;102501;-55
2022/06/02 03:44:50;;;;;;;5.43;4.93;;;;;;;18.45;71.31;101077.75;5014945;28;102010;-56
2022/06/02 03:47:38;;;;;;;5.30;4.80;;;;;;;18.45;71.43;101074.97;4995349;28;104047;-55
2022/06/02 03:50:11;;;;;;;;;;;;;;;18.45;71.33;101074.19;4984407;28;102132;-55
2022/06/02 03:52:55;;;;;;;5.13;4.47;;;;;;;18.46;71.51;101073.88;4999806;28;102580;-55
2022/06/02 03:55:41;;;;;;;5.40;4.88;;;;;;;18.47;71.17;101072.75;5001860;28;102118;-55
2022/06/02 03:58:24;;;;;;;5.57;5.07;;;;;;;18.47;71.45;101071.94;5001925;28;104109;-55
2022/06/02 04:00:56;;;;;;;5.55;4.80;;;;;;;18.46;71.06;101071.13;4993680;28;102008;-55
2022/06/02 04:03:40;;;;;;;5.15;4.60;;;;;;;18.48;71.36;101073.56;5001069;28;102178;-55
2022/06/02 04:06:23;;;;;;;5.50;5.03;;;;;;;18.49;71.28;101080.69;4997475;28;102205;-55
2022/06/02 04:09:13;;;;;;;5.43;4.38;;;;;;;18.48;71.23;101079.06;5000483;28;103925;-55
2022/06/02 04:14:55;;;;;;;;;;;;;;;18.49;71.54;101081.50;5001471;28;102340;-55
2022/06/02 04:17:30;;;;;;;5.20;4.70;;;;;;;18.52;71.51;101087.50;5002110;28;102371;-55
2022/06/02 04:23:26;;;;;;;5.55;4.90;;;;;;;18.51;71.37;101089.47;5012339;28;102309;-55
2022/06/02 04:26:02;;;;;;;5.35;4.85;;;;;;;18.53;71.24;101087.19;5009714;28;102192;-55
2022/06/02 04:28:44;;;;;;;6.28;4.75;;;;;;;18.54;71.21;101085.25;5002492;28;102318;-56
2022/06/02 04:31:25;;;;;;;6.75;5.18;;;;;;;18.53;71.24;101087.19;4996245;28;103964;-55
2022/06/02 04:34:05;;;;;;;4.90;4.47;;;;;;;18.54;71.44;101088.03;5018079;28;102131;-55
2022/06/02 04:36:39;;;;;;;6.35;5.18;;;;;;;18.54;71.43;101088.03;5003411;28;102269;-56
2022/06/02 04:39:13;;;;;;;5.38;4.88;;;;;;;18.56;71.32;101085.75;5019152;28;102176;-55
2022/06/02 04:41:46;;;;;;;5.30;4.80;;;;;;;18.55;71.46;101087.69;5002351;28;104044;-55
2022/06/02 04:44:23;;;;;;;6.07;4.97;;;;;;;18.56;71.17;101080.22;4982394;28;102645;-54
2022/06/02 04:47:02;;;;;;;5.80;5.15;;;;;;;18.57;71.39;101087.38;5011209;28;102552;-55
2022/06/02 04:49:40;;;;;;;5.40;4.90;;;;;;;18.58;71.33;101092.56;4999667;28;102333;-55
2022/06/02 04:52:15;;;;;;;5.40;4.93;;;;;;;18.59;71.34;101082.38;4994148;28;103959;-55
2022/06/02 04:54:50;;;;;;;5.10;4.60;;;;;;;18.60;71.05;101083.97;4983724;28;102100;-55
2022/06/02 04:57:27;;;;;;;4.97;4.50;;;;;;;18.59;71.35;101096.94;4981761;28;101949;-55
2022/06/02 05:00:03;;;;;;;5.70;5.15;;;;;;;18.62;71.22;101099.09;4996302;28;102281;-55
2022/06/02 05:02:43;;;;;;;5.57;4.50;;;;;;;18.66;71.39;101091.81;4992205;28;103976;-55
2022/06/02 05:05:21;;;;;;;5.15;4.65;;;;;;;18.66;71.28;101091.00;4985481;28;102148;-56
2022/06/02 05:08:23;;;;;;;5.20;4.70;;;;;;;18.69;71.21;101098.63;4978816;28;102217;-55
2022/06/02 05:11:05;;;;;;;5.70;5.05;;;;;;;18.70;71.36;101111.28;4970978;28;102125;-55
2022/06/02 05:13:40;;;;;;;5.50;5.00;;;;;;;18.71;71.26;101099.16;4997393;28;103673;-55
2022/06/02 05:16:19;;;;;;;6.00;5.15;;;;;;;18.74;71.17;101109.53;4998981;28;102433;-56
2022/06/02 05:19:32;;;;;;;6.72;5.40;;;;;;;18.75;71.03;101111.16;4978710;28;102007;-55
2022/06/02 05:22:43;;;;;;;5.18;4.68;;;;;;;18.77;71.06;101108.91;4978984;28;102846;-55
2022/06/02 05:25:45;;;;;;;12.30;9.25;;;;;;;18.79;71.07;101106.66;4991087;28;104060;-55
2022/06/02 05:28:44;;;;;;;12.15;7.55;;;;;;;18.81;71.08;101104.38;4978230;28;107874;-55
2022/06/02 05:32:00;;;;;;;11.30;6.15;;;;;;;18.81;71.09;101098.88;4979029;28;102182;-55
2022/06/02 05:34:52;;;;;;;9.20;6.63;;;;;;;18.82;71.21;101106.00;4998027;28;102034;-55
2022/06/02 05:37:33;;;;;;;14.20;10.02;;;;;;;18.83;71.01;101107.66;4987781;28;104081;-56
2022/06/02 05:40:19;;;;;;;13.57;8.43;;;;;;;18.85;70.72;101099.88;4984513;28;104718;-56
2022/06/02 05:43:00;;;;;;;11.25;7.93;;;;;;;18.87;71.19;101103.13;4995267;28;102141;-55
2022/06/02 05:45:42;;;;;;;15.75;10.45;;;;;;;18.89;71.13;101109.13;4985129;28;102243;-55
2022/06/02 05:48:27;;;;;;;16.20;11.68;;;;;;;18.91;70.75;101106.88;4990219;28;103931;-55
2022/06/02 05:51:00;;;;;;;15.23;10.18;;;;;;;18.92;70.90;101105.72;5001575;28;102084;-56
2022/06/02 05:53:42;;;;;;;19.35;10.82;;;;;;;18.94;71.16;101102.66;4999336;28;102247;-55
2022/06/02 05:56:20;;;;;;;16.45;10.77;;;;;;;18.94;70.83;101103.47;4996107;28;102520;-56
2022/06/02 05:59:13;;;;;;;18.50;12.20;;;;;;;18.96;70.95;101103.97;4997821;28;103844;-55
2022/06/02 06:01:59;;;;;;;13.98;10.05;;;;;;;19.00;70.71;101106.09;4992520;28;103661;-55
2022/06/02 06:04:43;;;;;;;14.35;10.98;;;;;;;19.01;70.67;101113.25;5006470;28;102212;-56
2022/06/02 06:07:19;;;;;;;17.98;12.45;;;;;;;19.02;70.75;101109.34;4988768;28;102637;-55
2022/06/02 06:09:57;;;;;;;20.15;14.10;;;;;;;19.03;71.01;101110.97;4995699;28;103914;-55
2022/06/02 06:12:58;;;;;;;18.42;13.15;;;;;;;19.04;70.98;101112.59;5003207;28;102230;-56
2022/06/02 06:15:39;;;;;;;19.75;13.70;;;;;;;19.05;70.97;101112.28;4992198;28;102183;-55
2022/06/02 06:18:18;;;;;;;18.70;12.38;;;;;;;19.06;70.91;101115.84;4995734;28;102359;-55
2022/06/02 06:20:59;;;;;;;18.73;12.50;;;;;;;19.07;71.03;101112.75;4994852;28;104543;-55
2022/06/02 06:24:01;;;;;;;17.73;11.13;;;;;;;19.11;70.92;101118.47;5004468;28;102303;-55
2022/06/02 06:26:38;;;;;;;18.20;11.50;;;;;;;19.13;70.79;101108.72;4969993;28;102222;-55
2022/06/02 06:29:19;;;;;;;16.48;11.30;;;;;;;19.15;71.09;101116.72;4990221;28;102447;-55
2022/06/02 06:31:58;;;;;;;13.60;10.70;;;;;;;19.16;70.82;101115.56;5007638;28;103931;-56
2022/06/02 06:34:32;;;;;;;;;;;;;;;19.17;70.90;101108.91;4996325;28;102070;-55
2022/06/02 06:37:23;;;;;;;13.82;10.82;;;;;;;19.18;70.90;101110.53;4988571;28;102903;-55
2022/06/02 06:40:02;;;;;;;17.67;12.13;;;;;;;19.18;70.88;101108.56;4997922;28;102130;-55
2022/06/02 06:42:47;;;;;;;15.70;11.27;;;;;;;19.18;71.13;101113.28;5011810;28;103991;-55
2022/06/02 06:45:18;;;;;;;17.58;11.90;;;;;;;19.18;70.91;101107.78;5011025;28;102332;-55
2022/06/02 06:47:52;;;;;;;18.65;11.60;;;;;;;19.18;70.86;101111.34;5002381;28;102372;-55
2022/06/02 06:50:23;;;;;;;14.00;10.70;;;;;;;19.19;70.83;101106.66;4984257;28;102812;-55
2022/06/02 06:53:09;;;;;;;15.68;11.50;;;;;;;19.17;70.85;101111.66;4988008;28;104121;-55
2022/06/02 06:55:51;;;;;;;16.27;11.80;;;;;;;19.18;71.10;101118.81;4986971;28;102198;-56
2022/06/02 06:58:31;;;;;;;16.55;10.60;;;;;;;19.18;70.98;101113.28;4990405;28;102109;-55
2022/06/02 07:03:44;;;;;;;12.95;9.88;;;;;;;19.21;71.06;101123.69;4191830;22;102953;-93
2022/06/02 07:06:19;;;;;;;15.43;10.98;;;;;;;19.20;70.91;101122.88;4989952;28;102131;-93
2022/06/02 07:08:54;;;;;;;13.27;11.10;;;;;;;19.20;70.79;101122.88;4983944;28;102218;-90
2022/06/02 07:14:26;;;;;;;15.55;10.63;;;;;;;19.22;70.98;101125.31;4990997;28;107757;-94
2022/06/02 07:16:56;;;;;;;14.80;10.48;;;;;;;19.22;71.11;101119.78;4996740;28;102573;-92
2022/06/02 07:19:32;;;;;;;13.30;10.32;;;;;;;19.22;70.95;101117.03;4986036;28;102031;-92
2022/06/02 07:29:16;;;;;;;13.68;11.25;;;;;;;19.23;71.07;101118.69;2966476;22;103558;-86
2022/06/02 07:32:05;;;;;;;14.95;10.48;;;;;;;19.24;70.92;101133.28;4939871;28;106858;-88
2022/06/02 07:34:53;;;;;;;13.38;10.15;;;;;;;19.24;70.99;101128.56;4952204;28;102369;-87
2022/06/02 07:37:32;;;;;;;13.35;9.07;;;;;;;19.26;70.83;101129.06;4950795;28;103894;-88
2022/06/02 07:40:27;;;;;;;15.68;9.32;;;;;;;19.35;71.14;101123.56;4951155;28;102117;-85
2022/06/02 07:43:26;;;;;;;12.77;9.30;;;;;;;19.38;70.98;101133.97;4919625;28;102199;-87
2022/06/02 07:46:09;;;;;;;14.23;8.55;;;;;;;19.39;70.88;101127.31;4951178;28;103222;-86
2022/06/02 07:49:08;;;;;;;9.98;8.40;;;;;;;19.39;70.96;101122.59;4954305;28;103908;-88
2022/06/02 07:51:41;;;;;;;12.32;9.52;;;;;;;19.40;71.11;101126.16;4954661;28;102506;-86
2022/06/02 07:54:23;;;;;;;12.70;9.05;;;;;;;19.39;70.88;101128.13;4940741;28;102264;-87
2022/06/02 07:57:00;;;;;;;13.02;9.05;;;;;;;19.40;70.73;101129.78;4941567;28;102253;-86
2022/06/02 07:59:41;;;;;;;10.68;7.72;;;;;;;19.43;70.87;101131.84;4939738;28;104025;-86
2022/06/02 08:02:29;;;;;;;13.32;8.93;;;;;;;19.43;71.04;101120.81;4965807;28;102263;-87
2022/06/02 08:05:17;;;;;;;10.32;8.13;;;;;;;19.45;71.13;101129.59;4949183;28;102355;-87
2022/06/02 08:08:29;;;;;;;11.10;9.10;;;;;;;19.41;70.93;101134.16;4962284;28;102670;-87
2022/06/02 08:11:23;;;;;;;11.00;8.32;;;;;;;19.42;71.14;101126.69;4948644;28;103050;-88
2022/06/02 08:14:26;;;;;;;11.57;8.48;;;;;;;19.42;70.88;101129.44;4943077;28;102010;-87
2022/06/02 08:17:31;;;;;;;11.73;8.13;;;;;;;19.44;70.61;101128.00;3065821;22;105146;-92
2022/06/02 08:20:09;;;;;;;12.30;8.55;;;;;;;19.41;71.03;101131.38;4965943;22;102817;-53
2022/06/02 08:22:43;;;;;;;13.40;9.50;;;;;;;19.40;71.07;101126.16;4955668;28;104219;-53
2022/06/02 08:25:11;;;;;;;16.40;10.85;;;;;;;19.39;70.87;101125.38;4949182;28;102064;-57
2022/06/02 08:27:59;;;;;;;12.07;9.00;;;;;;;19.40;70.96;101137.22;4955761;28;102415;-56
2022/06/02 08:33:17;;;;;;;12.25;7.95;;;;;;;19.42;70.79;101133.00;4983425;22;103083;-55
2022/06/02 08:35:52;;;;;;;9.32;7.45;;;;;;;19.42;70.96;101130.25;4975534;28;102725;-55
2022/06/02 08:38:47;;;;;;;9.68;7.22;;;;;;;19.43;70.80;101129.09;4974421;28;102546;-55
2022/06/02 08:41:57;;;;;;;9.80;8.35;;;;;;;19.45;70.80;101134.31;4963789;28;102249;-56
2022/06/02 08:45:14;;;;;;;12.10;8.48;;;;;;;19.42;70.68;101124.72;4975518;28;108895;-56
2022/06/02 08:48:17;;;;;;;10.17;8.37;;;;;;;19.42;70.80;101129.44;4966886;28;102835;-56
2022/06/02 08:51:13;;;;;;;11.95;8.65;;;;;;;19.40;71.13;101127.00;4974849;28;102472;-56
2022/06/02 08:54:21;;;;;;;10.32;8.55;;;;;;;19.38;71.00;101134.78;4974711;28;102368;-56
2022/06/02 08:57:13;;;;;;;11.77;9.67;;;;;;;19.38;70.87;101136.72;4971670;28;103975;-56
2022/06/02 09:00:28;;;;;;;12.40;9.23;;;;;;;19.37;70.94;101129.59;4972786;22;102508;-86
2022/06/02 09:03:18;;;;;;;11.65;8.85;;;;;;;19.35;71.07;101135.41;4952450;28;102128;-86
2022/06/02 09:06:18;;;;;;;10.98;8.82;;;;;;;19.34;70.94;101136.56;4955903;28;102253;-85
2022/06/02 09:09:16;;;;;;;10.00;8.07;;;;;;;19.32;71.03;101125.00;4952234;28;103626;-86
2022/06/02 09:12:00;;;;;;;12.18;8.40;;;;;;;19.32;70.88;101125.00;4958736;28;102351;-87
2022/06/02 09:15:18;;;;;;;10.27;8.77;;;;;;;19.32;70.99;101130.53;4953933;28;102456;-87
2022/06/02 09:17:56;;;;;;;11.27;8.38;;;;;;;19.34;70.98;101138.50;4947670;28;102664;-85
2022/06/02 09:20:38;;;;;;;11.47;9.40;;;;;;;19.33;70.75;101134.09;4952115;28;102978;-87
2022/06/02 09:23:44;;;;;;;10.50;8.18;;;;;;;19.30;71.10;101127.31;4949583;28;102272;-86
2022/06/02 09:26:42;;;;;;;9.70;8.35;;;;;;;19.28;70.93;101129.56;4945994;28;102638;-88
2022/06/02 09:29:23;;;;;;;9.93;8.00;;;;;;;19.25;71.20;101126.63;4937451;28;102308;-87
2022/06/02 09:32:30;;;;;;;10.18;8.00;;;;;;;19.23;71.22;101126.94;4941360;28;103934;-87
2022/06/02 09:35:13;;;;;;;8.82;7.93;;;;;;;19.23;71.12;101126.16;4883248;28;102951;-88
2022/06/02 09:38:20;;;;;;;9.50;8.50;;;;;;;19.23;71.03;101131.66;4891510;28;102662;-87
2022/06/02 09:40:49;;;;;;;11.40;8.10;;;;;;;19.23;71.04;101138.00;4930107;28;103058;-87
2022/06/02 09:43:38;;;;;;;;;;;;;;;19.20;71.16;101139.44;4939414;28;104224;-87
2022/06/02 09:46:27;;;;;;;9.05;8.15;;;;;;;19.19;71.21;101134.25;4948940;28;102591;-87
2022/06/02 09:49:08;;;;;;;9.93;7.78;;;;;;;19.19;71.29;101134.25;4921126;28;102299;-86
2022/06/02 09:51:47;;;;;;;9.55;7.63;;;;;;;19.21;71.02;101135.53;4953238;28;102163;-87
2022/06/02 09:54:31;;;;;;;;;;;;;;;19.24;70.98;101128.56;4953495;28;103424;-87
2022/06/02 09:57:56;;;;;;;9.20;7.53;;;;;;;19.21;71.00;101123.69;4951654;28;102370;-87
2022/06/02 10:00:43;;;;;;;13.20;8.48;;;;;;;19.21;70.88;101118.16;4944876;28;102436;-87
2022/06/02 10:03:36;;;;;;;8.73;7.68;;;;;;;19.22;71.24;101119.78;4934365;28;102519;-87
2022/06/02 10:06:30;;;;;;;12.43;8.18;;;;;;;19.21;70.81;101107.13;4931929;28;107287;-87
2022/06/02 10:09:11;;;;;;;9.95;8.18;;;;;;;19.22;70.90;101117.03;4927492;28;102522;-87
2022/06/02 10:11:48;;;;;;;9.65;7.88;;;;;;;19.25;70.71;101121.91;4932964;28;102226;-87
2022/06/02 10:14:52;;;;;;;11.05;8.05;;;;;;;19.25;70.73;101118.34;4926629;28;102092;-87
2022/06/02 10:17:55;;;;;;;8.82;7.65;;;;;;;19.24;70.91;101106.50;4934002;28;104037;-88
2022/06/02 10:20:39;;;;;;;12.02;7.88;;;;;;;19.26;70.87;101106.16;4929710;28;102141;-87
2022/06/02 10:23:28;;;;;;;14.32;7.85;;;;;;;19.27;70.76;101102.28;4932191;28;102445;-85
2022/06/02 10:26:16;;;;;;;10.73;7.93;;;;;;;19.28;70.73;101117.72;4932843;28;102831;-87
2022/06/02 10:29:28;;;;;;;10.38;7.07;;;;;;;19.30;70.90;101116.25;4927696;28;103877;-87
2022/06/02 10:32:36;;;;;;;11.82;7.75;;;;;;;19.28;70.99;101107.47;4904754;28;102414;-87
2022/06/02 10:35:40;;;;;;;9.32;7.35;;;;;;;19.26;70.82;101107.00;4928730;28;102704;-87
2022/06/02 10:38:25;;;;;;;9.00;7.55;;;;;;;19.25;70.75;101108.13;4929561;28;102621;-86
2022/06/02 10:41:09;;;;;;;11.20;8.07;;;;;;;19.24;70.55;101100.97;4929349;28;104222;-86
2022/06/02 10:44:18;;;;;;;9.25;7.40;;;;;;;19.23;70.69;101093.03;4919308;28;102707;-87
2022/06/02 10:47:22;;;;;;;9.15;7.78;;;;;;;19.21;70.77;101096.91;4890966;28;105626;-86
2022/06/02 10:49:53;;;;;;;10.35;7.63;;;;;;;19.20;70.85;101106.31;4926438;28;102475;-87
2022/06/02 10:53:00;;;;;;;11.23;7.72;;;;;;;19.20;70.95;101100.00;4928075;28;104142;-87
2022/06/02 10:56:18;;;;;;;9.55;7.07;;;;;;;19.18;70.88;101114.09;4924610;28;103124;-87
2022/06/02 10:59:33;;;;;;;10.02;7.88;;;;;;;19.19;70.92;101103.91;4922090;28;103447;-87
2022/06/02 11:02:58;;;;;;;11.00;7.45;;;;;;;19.17;70.55;101101.44;4929956;28;102637;-87
2022/06/02 11:06:12;;;;;;;10.52;7.95;;;;;;;19.17;70.75;101106.16;4926695;28;104180;-87
2022/06/02 11:09:17;;;;;;;9.48;7.57;;;;;;;19.14;71.03;101117.81;4907997;28;102572;-86
2022/06/02 11:12:13;;;;;;;8.60;7.70;;;;;;;19.15;71.01;101125.00;4929547;28;102984;-86
2022/06/02 11:15:22;;;;;;;8.70;7.78;;;;;;;19.16;70.74;101115.56;4926979;28;102298;-86
2022/06/02 11:18:06;;;;;;;;;;;;;;;19.16;70.66;101119.13;4929973;28;104202;-87
2022/06/02 11:21:14;;;;;;;8.50;7.30;;;;;;;19.15;70.85;101108.44;4924348;28;102266;-88
2022/06/02 11:24:15;;;;;;;10.55;7.38;;;;;;;19.14;70.82;101112.31;4924235;28;102714;-87
2022/06/02 11:27:27;;;;;;;9.20;7.53;;;;;;;19.16;70.64;101115.56;4925637;28;102404;-85
2022/06/02 11:30:29;;;;;;;14.60;7.85;;;;;;;19.16;70.59;101115.56;4921403;28;104028;-87
2022/06/02 11:33:29;;;;;;;8.40;7.07;;;;;;;19.17;70.57;101111.66;4926649;28;102546;-86
2022/06/02 11:36:28;;;;;;;8.73;7.22;;;;;;;19.16;70.41;101110.06;4930140;28;102409;-86
2022/06/02 11:39:25;;;;;;;9.65;7.75;;;;;;;19.17;70.34;101115.25;4931734;28;102734;-86
2022/06/02 11:42:01;;;;;;;8.15;7.25;;;;;;;19.17;70.28;101111.66;4926660;28;103881;-87
2022/06/02 11:44:55;;;;;;;8.10;6.65;;;;;;;19.15;70.41;101114.75;4933984;28;102412;-86
2022/06/02 11:47:46;;;;;;;8.60;7.60;;;;;;;19.17;70.63;101111.66;4932777;28;102296;-88
2022/06/02 11:50:51;;;;;;;9.07;7.28;;;;;;;19.15;70.57;101109.25;4949306;28;102310;-86
2022/06/02 11:53:33;;;;;;;9.60;7.43;;;;;;;19.15;70.41;101108.44;4927222;28;104182;-87
2022/06/02 11:56:08;;;;;;;7.28;6.38;;;;;;;19.16;70.48;101099.00;4932948;28;102333;-87
2022/06/02 11:59:14;;;;;;;7.93;7.13;;;;;;;19.16;70.14;101101.78;4933543;28;102136;-88
2022/06/02 12:01:58;;;;;;;8.57;7.28;;;;;;;19.15;70.66;101102.91;4932480;28;102322;-90
2022/06/02 12:05:04;;;;;;;10.98;7.90;;;;;;;19.15;70.21;101095.44;4933111;28;109535;-88
2022/06/02 12:08:07;;;;;;;8.27;6.95;;;;;;;19.17;70.56;101095.13;4931546;28;102447;-88
2022/06/02 12:11:10;;;;;;;8.15;7.30;;;;;;;19.17;70.33;101095.94;4933260;28;102187;-90
2022/06/02 12:13:59;;;;;;;12.90;7.68;;;;;;;19.19;70.60;101095.63;4924625;28;102174;-89
2022/06/02 12:16:42;;;;;;;7.95;7.07;;;;;;;19.18;70.53;101093.97;4960387;28;103099;-87
2022/06/02 12:19:22;;;;;;;8.65;7.28;;;;;;;19.15;70.58;101083.59;4928789;28;102646;-86
2022/06/02 12:21:59;;;;;;;9.52;7.72;;;;;;;19.16;70.44;101079.72;4927055;28;102622;-86
2022/06/02 12:25:00;;;;;;;9.23;7.10;;;;;;;19.15;70.45;101075.31;4930916;28;102325;-86
2022/06/02 12:27:54;;;;;;;8.40;6.93;;;;;;;19.16;70.46;101071.44;4931751;28;104202;-87
2022/06/02 12:30:42;;;;;;;8.93;7.20;;;;;;;19.13;70.75;101061.84;4934401;28;103359;-87
2022/06/02 12:33:47;;;;;;;7.72;6.95;;;;;;;19.12;70.68;101060.22;4933611;28;102303;-87
2022/06/02 12:36:58;;;;;;;8.65;7.40;;;;;;;19.16;70.79;101052.13;4928658;28;102656;-86
2022/06/02 12:39:51;;;;;;;9.55;7.00;;;;;;;19.17;70.77;101053.72;4893220;28;104684;-87
2022/06/02 12:43:02;;;;;;;11.05;7.53;;;;;;;19.20;70.61;101051.13;4894036;28;102611;-87
2022/06/02 12:45:45;;;;;;;9.43;7.63;;;;;;;19.18;70.50;101039.59;4917844;28;102993;-88
2022/06/02 12:49:04;;;;;;;9.55;7.35;;;;;;;19.21;70.64;101051.94;4935077;28;102405;-88
2022/06/02 12:51:48;;;;;;;10.43;7.45;;;;;;;19.20;70.64;101042.88;4869239;28;103621;-87
2022/06/02 12:54:59;;;;;;;11.65;6.95;;;;;;;19.21;70.57;101032.63;4872666;28;102388;-87
2022/06/02 12:57:52;;;;;;;8.73;7.80;;;;;;;19.21;70.40;101035.41;4932817;28;102584;-87
2022/06/02 13:00:36;;;;;;;6.65;5.95;;;;;;;19.24;70.33;101032.00;4935432;28;102546;-87
2022/06/02 13:03:53;;;;;;;9.48;7.30;;;;;;;19.21;70.58;101030.69;4929694;28;103872;-86
2022/06/02 13:06:59;;;;;;;13.73;7.55;;;;;;;19.21;70.46;101035.41;4934824;28;102695;-87